Aviation Digital Data Service (ADDS)

Output produced by METARs form (0527 UTC 22 November 2017)
found at http://bcaws.aviationweather.gov/adds/metars/
 
METAR text: KO22 220515Z AUTO 00000KT 10SM CLR 11/10 A3024 RMK AO1
Conditions at: KO22 (COLUMBIA , CA, US) observed 0515 UTC 22 November 2017
Temperature: 11.0°C (52°F)
Dewpoint: 10.0°C (50°F) [RH = 94%]
Pressure (altimeter): 30.24 inches Hg (1024.1 mb)
Winds: calm
Visibility: 10 or more miles (16+ km)
Ceiling: at least 12,000 feet AGL
Clouds: sky clear below 12,000 feet AGL
Weather: automated observation with no human augmentation;
there may or may not be significant weather present at this time